createdAt,value
2022-11-27T00:01:12.393Z,14.73
2022-11-27T00:03:39.878Z,18.83
2022-11-27T00:06:07.529Z,14.73
2022-11-27T00:08:34.331Z,16.88
2022-11-27T00:11:09.002Z,22.95
2022-11-27T00:13:35.586Z,17.25
2022-11-27T00:16:02.665Z,18.60
2022-11-27T00:18:29.301Z,16.98
2022-11-27T00:20:56.068Z,16.83
2022-11-27T00:23:22.570Z,17.50
2022-11-27T00:25:53.147Z,21.40
2022-11-27T00:28:20.317Z,19.70
2022-11-27T00:30:47.423Z,17.70
2022-11-27T00:33:13.966Z,19.55
2022-11-27T00:35:40.972Z,18.38
2022-11-27T00:38:08.071Z,17.48
2022-11-27T00:40:34.739Z,18.25
2022-11-27T00:43:01.795Z,22.95
2022-11-27T00:45:29.882Z,14.48
2022-11-27T00:47:56.444Z,18.52
2022-11-27T00:50:22.983Z,18.77
2022-11-27T00:52:49.591Z,17.77
2022-11-27T00:55:16.102Z,17.17
2022-11-27T00:57:42.609Z,18.23
2022-11-27T01:00:09.744Z,17.27
2022-11-27T01:02:36.320Z,18.85
2022-11-27T01:05:02.913Z,16.85
2022-11-27T01:07:29.473Z,17.00
2022-11-27T01:09:56.004Z,18.80
2022-11-27T01:12:22.535Z,15.60
2022-11-27T01:14:49.093Z,17.90
2022-11-27T01:17:15.624Z,18.42
2022-11-27T01:19:42.180Z,17.42
2022-11-27T01:22:08.734Z,17.50
2022-11-27T01:24:35.378Z,18.58
2022-11-27T01:27:01.894Z,20.25
2022-11-27T01:29:28.383Z,18.75
2022-11-27T01:31:54.925Z,17.17
2022-11-27T01:34:21.516Z,16.85
2022-11-27T01:36:48.380Z,13.68
2022-11-27T01:39:20.214Z,20.00
2022-11-27T01:41:48.645Z,16.95
2022-11-27T01:44:24.225Z,21.38
2022-11-27T01:46:55.860Z,17.90
2022-11-27T01:49:35.442Z,18.35
2022-11-27T01:52:07.437Z,15.68
2022-11-27T01:54:45.544Z,14.45
2022-11-27T01:57:33.049Z,17.92
2022-11-27T02:00:01.500Z,15.88
2022-11-27T02:02:28.726Z,13.80
2022-11-27T02:04:55.742Z,15.02
2022-11-27T02:07:22.494Z,19.23
2022-11-27T02:09:49.248Z,17.55
2022-11-27T02:12:43.486Z,16.85
2022-11-27T02:15:41.476Z,17.52
2022-11-27T02:18:29.457Z,17.45
2022-11-27T02:21:10.786Z,13.70
2022-11-27T02:23:49.307Z,14.95
2022-11-27T02:26:18.668Z,18.65
2022-11-27T02:29:10.424Z,19.08
2022-11-27T02:32:20.818Z,16.02
2022-11-27T02:34:53.250Z,20.70
2022-11-27T02:37:32.047Z,19.33
2022-11-27T02:40:36.810Z,17.02
2022-11-27T02:43:15.823Z,19.45
2022-11-27T02:45:45.117Z,17.63
2022-11-27T02:48:15.317Z,19.88
2022-11-27T02:50:44.467Z,19.27
2022-11-27T02:53:33.561Z,20.10
2022-11-27T02:56:02.181Z,17.95
2022-11-27T02:58:29.832Z,18.98
2022-11-27T03:00:57.939Z,18.73
2022-11-27T03:03:29.592Z,24.58
2022-11-27T03:06:04.135Z,21.48
2022-11-27T03:08:38.310Z,20.80
2022-11-27T03:11:08.408Z,24.45
2022-11-27T03:13:39.862Z,21.42
2022-11-27T03:16:22.841Z,21.25
2022-11-27T03:19:09.676Z,19.27
2022-11-27T03:21:40.766Z,19.98
2022-11-27T03:24:08.506Z,19.40
2022-11-27T03:26:35.600Z,19.58
2022-11-27T03:29:04.719Z,21.83
2022-11-27T03:31:31.839Z,16.52
2022-11-27T03:33:59.082Z,23.85
2022-11-27T03:36:25.618Z,23.77
2022-11-27T03:38:54.272Z,21.95
2022-11-27T03:41:53.242Z,23.45
2022-11-27T03:44:26.683Z,24.23
2022-11-27T03:47:17.943Z,26.38
2022-11-27T03:50:11.695Z,22.20
2022-11-27T03:52:59.357Z,25.35
2022-11-27T03:55:33.525Z,27.05
2022-11-27T03:58:14.289Z,22.77
2022-11-27T04:03:11.491Z,25.00
2022-11-27T04:05:38.406Z,26.52
2022-11-27T04:08:05.164Z,24.10
2022-11-27T04:10:31.803Z,26.77
2022-11-27T04:12:58.294Z,20.90
2022-11-27T04:15:24.865Z,23.55
2022-11-27T04:17:51.416Z,24.88
2022-11-27T04:20:18.007Z,24.60
2022-11-27T04:22:44.588Z,26.42
2022-11-27T04:25:11.540Z,29.90
2022-11-27T04:27:38.060Z,27.95
2022-11-27T04:30:05.219Z,29.23
2022-11-27T04:32:32.107Z,27.35
2022-11-27T04:34:58.650Z,31.45
2022-11-27T04:37:25.436Z,25.67
2022-11-27T04:39:52.012Z,31.98
2022-11-27T04:42:18.616Z,28.63
2022-11-27T04:44:45.159Z,24.08
2022-11-27T04:47:11.842Z,31.45
2022-11-27T04:49:38.816Z,22.10
2022-11-27T04:52:05.535Z,29.45
2022-11-27T04:54:32.592Z,26.00
2022-11-27T04:56:59.117Z,29.85
2022-11-27T04:59:25.804Z,30.77
2022-11-27T05:01:52.319Z,27.95
2022-11-27T05:04:18.916Z,26.98
2022-11-27T05:06:45.617Z,28.02
2022-11-27T05:09:12.265Z,26.92
2022-11-27T05:11:38.868Z,28.20
2022-11-27T05:14:22.648Z,24.48
2022-11-27T05:16:51.649Z,26.85
2022-11-27T05:19:20.225Z,27.95
2022-11-27T05:21:48.641Z,28.05
2022-11-27T05:24:16.910Z,27.60
2022-11-27T05:26:43.888Z,26.23
2022-11-27T05:29:11.664Z,29.00
2022-11-27T05:31:38.325Z,25.77
2022-11-27T05:34:05.399Z,27.77
2022-11-27T05:36:33.130Z,28.75
2022-11-27T05:39:00.455Z,28.90
2022-11-27T05:41:27.360Z,24.38
2022-11-27T05:43:53.972Z,27.20
2022-11-27T05:46:22.446Z,28.70
2022-11-27T05:48:49.717Z,25.63
2022-11-27T05:51:17.386Z,28.60
2022-11-27T05:53:43.932Z,23.13
2022-11-27T05:56:13.472Z,27.90
2022-11-27T05:58:41.400Z,28.58
2022-11-27T06:01:09.158Z,26.45
2022-11-27T06:03:36.190Z,25.85
2022-11-27T06:06:07.894Z,25.55
2022-11-27T06:08:35.915Z,30.73
2022-11-27T06:11:24.312Z,25.88
2022-11-27T06:13:51.085Z,26.67
2022-11-27T06:16:23.541Z,23.42
2022-11-27T06:18:55.035Z,27.52
2022-11-27T06:21:23.045Z,25.58
2022-11-27T06:23:52.826Z,24.65
2022-11-27T06:26:24.435Z,25.33
2022-11-27T06:28:51.796Z,27.90
2022-11-27T06:31:21.188Z,22.70
2022-11-27T06:33:49.258Z,26.77
2022-11-27T06:36:16.469Z,24.65
2022-11-27T06:38:43.215Z,24.58
2022-11-27T06:41:13.338Z,24.95
2022-11-27T06:43:40.035Z,25.42
2022-11-27T06:46:09.587Z,25.65
2022-11-27T06:48:36.179Z,27.27
2022-11-27T06:51:07.757Z,23.45
2022-11-27T06:53:36.577Z,23.60
2022-11-27T06:56:08.966Z,23.88
2022-11-27T06:58:36.746Z,24.38
2022-11-27T07:01:07.937Z,29.83
2022-11-27T07:03:35.360Z,26.38
2022-11-27T07:06:04.125Z,26.88
2022-11-27T07:08:31.723Z,27.02
2022-11-27T07:11:07.319Z,26.75
2022-11-27T07:13:33.939Z,23.83
2022-11-27T07:16:01.920Z,25.83
2022-11-27T07:18:29.996Z,26.48
2022-11-27T07:20:57.003Z,22.67
2022-11-27T07:23:23.805Z,24.75
2022-11-27T07:25:50.406Z,25.17
2022-11-27T07:28:19.127Z,26.70
2022-11-27T07:30:46.394Z,23.38
2022-11-27T07:33:13.085Z,22.35
2022-11-27T07:35:39.643Z,22.63
2022-11-27T07:38:06.220Z,21.63
2022-11-27T07:40:32.810Z,23.73
2022-11-27T07:42:59.578Z,22.83
2022-11-27T07:45:26.583Z,21.73
2022-11-27T07:47:53.120Z,21.23
2022-11-27T07:50:19.663Z,31.63
2022-11-27T07:52:46.218Z,22.52
2022-11-27T07:55:12.906Z,23.17
2022-11-27T07:57:39.846Z,22.15
2022-11-27T08:00:06.998Z,22.40
2022-11-27T08:02:33.524Z,23.35
2022-11-27T08:05:00.139Z,20.20
2022-11-27T08:07:30.723Z,21.13
2022-11-27T08:10:00.642Z,24.88
2022-11-27T08:12:27.300Z,23.67
2022-11-27T08:14:54.095Z,20.88
2022-11-27T08:17:20.779Z,24.17
2022-11-27T08:19:47.332Z,21.95
2022-11-27T08:22:14.899Z,20.73
2022-11-27T08:24:42.718Z,21.35
2022-11-27T08:27:10.098Z,18.75
2022-11-27T08:29:37.402Z,19.52
2022-11-27T08:32:04.999Z,20.08
2022-11-27T08:34:32.070Z,21.90
2022-11-27T08:36:58.725Z,21.35
2022-11-27T08:39:26.685Z,21.33
2022-11-27T08:41:54.054Z,21.63
2022-11-27T08:44:20.773Z,21.38
2022-11-27T08:46:47.466Z,20.73
2022-11-27T08:49:14.058Z,21.10
2022-11-27T08:51:40.608Z,20.48
2022-11-27T08:54:07.565Z,20.10
2022-11-27T08:56:34.419Z,22.38
2022-11-27T08:59:01.005Z,18.42
2022-11-27T09:01:31.000Z,25.45
2022-11-27T09:03:58.091Z,21.27
2022-11-27T09:06:29.552Z,19.15
2022-11-27T09:08:58.462Z,18.50
2022-11-27T09:11:25.556Z,19.05
2022-11-27T09:13:52.117Z,19.05
2022-11-27T09:16:20.604Z,20.23
2022-11-27T09:18:50.153Z,21.50
2022-11-27T09:21:18.727Z,21.70
2022-11-27T09:23:45.512Z,22.23
2022-11-27T09:26:14.948Z,19.00
2022-11-27T09:28:42.062Z,22.83
2022-11-27T09:31:12.022Z,20.00
2022-11-27T09:33:40.172Z,19.80
2022-11-27T09:36:09.364Z,18.70
2022-11-27T09:38:36.402Z,20.60
2022-11-27T09:41:26.099Z,19.20
2022-11-27T09:43:57.741Z,19.42
2022-11-27T09:46:36.929Z,18.75
2022-11-27T09:49:12.483Z,19.77
2022-11-27T09:51:58.179Z,20.98
2022-11-27T09:54:26.060Z,22.65
2022-11-27T09:56:56.323Z,20.08
2022-11-27T09:59:29.562Z,20.38
2022-11-27T10:01:57.228Z,23.70
2022-11-27T10:04:25.252Z,21.42
2022-11-27T10:06:54.610Z,21.92
2022-11-27T10:09:53.005Z,22.10
2022-11-27T10:12:41.313Z,20.00
2022-11-27T10:15:11.144Z,19.13
2022-11-27T10:17:52.399Z,18.13
2022-11-27T10:20:47.120Z,22.58
2022-11-27T10:23:20.659Z,18.73
2022-11-27T10:25:50.641Z,21.52
2022-11-27T10:28:46.329Z,18.13
2022-11-27T10:31:31.735Z,18.60
2022-11-27T10:34:23.558Z,19.05
2022-11-27T10:36:52.119Z,19.25
2022-11-27T10:39:42.547Z,18.95
2022-11-27T10:42:34.547Z,16.10
2022-11-27T10:45:05.976Z,17.65
2022-11-27T10:47:34.083Z,17.75
2022-11-27T10:50:01.321Z,16.92
2022-11-27T10:52:28.138Z,15.18
2022-11-27T10:55:04.547Z,17.70
2022-11-27T10:57:34.299Z,16.08
2022-11-27T11:00:25.150Z,15.80
2022-11-27T11:08:20.116Z,15.02
2022-11-27T11:10:54.654Z,14.88
2022-11-27T11:13:31.656Z,14.50
2022-11-27T11:16:06.004Z,13.70
2022-11-27T11:18:35.790Z,13.27
2022-11-27T11:21:07.325Z,12.00
2022-11-27T11:23:40.940Z,14.65
2022-11-27T11:26:29.705Z,15.27
2022-11-27T11:28:59.378Z,17.27
2022-11-27T11:31:39.123Z,15.40
2022-11-27T11:34:27.395Z,12.85
2022-11-27T11:36:59.026Z,13.15
2022-11-27T11:39:49.053Z,10.65
2022-11-27T11:42:22.161Z,11.20
2022-11-27T11:44:54.830Z,11.75
2022-11-27T11:47:25.019Z,11.77
2022-11-27T11:49:53.935Z,11.88
2022-11-27T11:52:23.133Z,8.73
2022-11-27T11:55:21.467Z,13.45
2022-11-27T11:58:13.595Z,14.30
2022-11-27T12:01:18.955Z,10.88
2022-11-27T12:03:37.446Z,9.70
2022-11-27T12:06:21.408Z,9.82
2022-11-27T12:08:53.861Z,11.57
2022-11-27T12:11:43.179Z,10.75
2022-11-27T12:14:25.920Z,11.60
2022-11-27T12:17:20.577Z,11.30
2022-11-27T12:20:21.937Z,10.32
2022-11-27T12:23:01.519Z,9.98
2022-11-27T12:25:32.753Z,11.57
2022-11-27T12:28:20.940Z,12.50
2022-11-27T12:31:05.892Z,11.25
2022-11-27T12:33:45.462Z,12.02
2022-11-27T12:36:40.097Z,10.07
2022-11-27T12:39:20.324Z,9.73
2022-11-27T12:42:12.341Z,9.68
2022-11-27T12:44:46.024Z,9.82
2022-11-27T12:47:23.215Z,9.57
2022-11-27T12:49:57.395Z,11.82
2022-11-27T12:52:28.173Z,10.32
2022-11-27T12:55:18.795Z,10.48
2022-11-27T12:57:58.123Z,9.18
2022-11-27T13:00:27.432Z,10.38
2022-11-27T13:03:10.509Z,10.43
2022-11-27T13:05:44.190Z,8.35
2022-11-27T13:08:16.438Z,11.40
2022-11-27T13:11:01.285Z,9.05
2022-11-27T13:13:37.775Z,11.40
2022-11-27T13:16:11.126Z,7.55
2022-11-27T13:19:01.398Z,8.68
2022-11-27T13:21:32.383Z,9.15
2022-11-27T13:24:02.552Z,9.48
2022-11-27T13:26:37.191Z,8.40
2022-11-27T13:29:13.564Z,9.02
2022-11-27T13:31:43.521Z,9.23
2022-11-27T13:34:22.838Z,8.25
2022-11-27T13:37:02.729Z,10.07
2022-11-27T13:39:42.471Z,11.00
2022-11-27T13:42:22.122Z,9.15
2022-11-27T13:45:06.288Z,9.15
2022-11-27T13:47:41.034Z,9.38
2022-11-27T13:50:13.151Z,9.07
2022-11-27T13:52:54.701Z,9.35
2022-11-27T13:55:32.664Z,8.65
2022-11-27T13:58:01.314Z,9.43
2022-11-27T14:00:43.288Z,7.88
2022-11-27T14:03:28.122Z,8.20
2022-11-27T14:05:54.928Z,8.70
2022-11-27T14:08:28.199Z,6.57
2022-11-27T14:11:14.017Z,9.95
2022-11-27T14:13:45.043Z,9.15
2022-11-27T14:16:39.592Z,9.85
2022-11-27T14:19:42.368Z,9.45
2022-11-27T14:23:07.259Z,7.90
2022-11-27T14:25:31.684Z,9.18
2022-11-27T14:28:26.170Z,8.32
2022-11-27T14:30:56.879Z,8.27
2022-11-27T14:33:59.731Z,7.53
2022-11-27T14:36:25.457Z,7.05
2022-11-27T14:38:52.487Z,6.60
2022-11-27T14:41:22.528Z,6.28
2022-11-27T14:43:59.003Z,6.63
2022-11-27T14:46:25.825Z,9.77
2022-11-27T14:48:55.340Z,7.05
2022-11-27T14:51:29.989Z,7.97
2022-11-27T14:54:02.668Z,7.70
2022-11-27T14:56:33.496Z,9.70
2022-11-27T14:59:00.922Z,9.50
2022-11-27T15:01:33.608Z,10.10
2022-11-27T15:04:03.614Z,9.85
2022-11-27T15:06:35.687Z,10.38
2022-11-27T15:09:30.655Z,7.35
2022-11-27T15:12:17.187Z,7.63
2022-11-27T15:14:55.492Z,6.40
2022-11-27T15:17:27.456Z,7.78
2022-11-27T15:19:56.085Z,10.35
2022-11-27T15:22:23.195Z,6.60
2022-11-27T15:25:05.330Z,6.82
2022-11-27T15:27:43.987Z,8.90
2022-11-27T15:30:21.757Z,8.68
2022-11-27T15:32:54.701Z,7.88
2022-11-27T15:35:36.275Z,10.73
2022-11-27T15:38:11.170Z,8.52
2022-11-27T15:40:40.686Z,8.48
2022-11-27T15:43:14.928Z,8.38
2022-11-27T15:45:43.650Z,7.70
2022-11-27T15:48:18.715Z,9.40
2022-11-27T15:50:51.392Z,8.48
2022-11-27T15:53:18.540Z,7.93
2022-11-27T15:55:45.167Z,9.68
2022-11-27T15:58:11.701Z,9.55
2022-11-27T16:00:38.312Z,10.00
2022-11-27T16:03:05.006Z,8.65
2022-11-27T16:05:31.598Z,9.35
2022-11-27T16:08:01.613Z,9.00
2022-11-27T16:10:28.457Z,7.65
2022-11-27T16:12:55.392Z,9.23
2022-11-27T16:15:23.551Z,9.50
2022-11-27T16:17:50.541Z,10.55
2022-11-27T16:20:17.224Z,7.90
2022-11-27T16:22:43.800Z,10.27
2022-11-27T16:25:10.320Z,9.27
2022-11-27T16:27:37.113Z,11.18
2022-11-27T16:30:04.323Z,10.05
2022-11-27T16:32:30.952Z,11.43
2022-11-27T16:34:57.539Z,10.57
2022-11-27T16:37:24.233Z,12.60
2022-11-27T16:39:50.790Z,11.90
2022-11-27T16:42:17.345Z,10.93
2022-11-27T16:44:44.472Z,13.30
2022-11-27T16:47:12.063Z,12.02
2022-11-27T16:49:38.588Z,12.95
2022-11-27T16:52:05.294Z,12.75
2022-11-27T16:54:31.851Z,12.82
2022-11-27T16:56:59.920Z,12.82
2022-11-27T16:59:26.571Z,15.82
2022-11-27T17:01:53.196Z,13.30
2022-11-27T17:04:21.077Z,13.90
2022-11-27T17:06:49.258Z,13.20
2022-11-27T17:09:17.207Z,12.60
2022-11-27T17:11:48.399Z,15.25
2022-11-27T17:14:16.290Z,14.05
2022-11-27T17:16:43.458Z,14.75
2022-11-27T17:19:14.335Z,14.45
2022-11-27T17:21:42.169Z,15.10
2022-11-27T17:24:15.496Z,19.75
2022-11-27T17:26:43.699Z,16.33
2022-11-27T17:29:12.099Z,15.88
2022-11-27T17:31:39.843Z,17.42
2022-11-27T17:34:07.290Z,17.63
2022-11-27T17:36:37.186Z,15.63
2022-11-27T17:39:05.748Z,16.00
2022-11-27T17:41:32.539Z,16.15
2022-11-27T17:43:59.357Z,21.77
2022-11-27T17:46:28.026Z,15.85
2022-11-27T17:48:58.006Z,16.08
2022-11-27T17:51:25.214Z,15.55
2022-11-27T17:53:51.896Z,16.10
2022-11-27T17:56:20.548Z,15.27
2022-11-27T17:58:47.959Z,15.05
2022-11-27T18:01:22.653Z,16.30
2022-11-27T18:03:49.628Z,15.38
2022-11-27T18:06:17.975Z,15.90
2022-11-27T18:08:45.567Z,15.48
2022-11-27T18:11:17.606Z,14.43
2022-11-27T18:13:44.778Z,13.15
2022-11-27T18:16:14.388Z,16.15
2022-11-27T18:18:41.174Z,15.30
2022-11-27T18:21:27.249Z,16.83
2022-11-27T18:29:28.535Z,14.82
2022-11-27T18:31:55.174Z,15.65
2022-11-27T18:34:21.817Z,15.77
2022-11-27T18:36:48.350Z,14.02
2022-11-27T18:39:15.721Z,14.68
2022-11-27T18:41:42.342Z,13.45
2022-11-27T18:44:10.241Z,13.50
2022-11-27T18:46:37.012Z,11.93
2022-11-27T18:49:03.973Z,13.73
2022-11-27T18:51:30.537Z,13.93
2022-11-27T18:53:57.302Z,12.73
2022-11-27T18:56:27.722Z,13.18
2022-11-27T18:58:54.492Z,14.85
2022-11-27T19:01:26.760Z,14.40
2022-11-27T19:03:54.207Z,16.17
2022-11-27T19:06:23.768Z,14.70
2022-11-27T19:08:50.653Z,15.45
2022-11-27T19:11:20.666Z,15.48
2022-11-27T19:13:48.279Z,13.90
2022-11-27T19:16:18.523Z,14.45
2022-11-27T19:18:45.258Z,14.63
2022-11-27T19:21:23.847Z,13.63
2022-11-27T19:23:51.643Z,13.50
2022-11-27T19:26:28.952Z,16.65
2022-11-27T19:28:58.365Z,15.68
2022-11-27T19:31:26.426Z,15.30
2022-11-27T19:34:01.332Z,14.20
2022-11-27T19:36:29.860Z,14.93
2022-11-27T19:39:02.368Z,17.15
2022-11-27T19:41:29.071Z,19.02
2022-11-27T19:43:55.617Z,16.27
2022-11-27T19:46:27.872Z,17.55
2022-11-27T19:48:56.767Z,15.50
2022-11-27T19:51:24.521Z,14.38
2022-11-27T19:53:51.197Z,17.45
2022-11-27T19:56:18.320Z,17.15
2022-11-27T19:58:45.225Z,14.38
2022-11-27T20:01:15.407Z,16.23
2022-11-27T20:03:43.150Z,15.65
2022-11-27T20:06:18.496Z,16.58
2022-11-27T20:08:46.592Z,16.98
2022-11-27T20:11:15.385Z,14.45
2022-11-27T20:13:42.118Z,18.25
2022-11-27T20:16:14.013Z,15.43
2022-11-27T20:18:41.612Z,17.25
2022-11-27T20:21:14.392Z,18.60
2022-11-27T20:23:41.743Z,16.92
2022-11-27T20:26:10.850Z,14.80
2022-11-27T20:28:38.876Z,15.52
2022-11-27T20:31:05.571Z,15.77
2022-11-27T20:33:32.519Z,16.35
2022-11-27T20:36:00.364Z,13.15
2022-11-27T20:38:27.025Z,15.07
2022-11-27T20:40:53.885Z,12.70
2022-11-27T20:43:20.698Z,14.13
2022-11-27T20:45:47.486Z,13.25
2022-11-27T20:48:14.129Z,14.77
2022-11-27T20:50:40.756Z,14.80
2022-11-27T20:53:07.523Z,14.40
2022-11-27T20:55:34.648Z,14.30
2022-11-27T20:58:01.165Z,14.18
2022-11-27T21:00:28.296Z,13.73
2022-11-27T21:02:54.814Z,13.65
2022-11-27T21:05:21.363Z,15.65
2022-11-27T21:07:47.988Z,16.23
2022-11-27T21:10:16.943Z,16.45
2022-11-27T21:12:43.573Z,14.88
2022-11-27T21:15:11.031Z,14.77
2022-11-27T21:17:37.568Z,14.25
2022-11-27T21:20:04.756Z,13.27
2022-11-27T21:22:31.556Z,14.57
2022-11-27T21:24:58.097Z,14.70
2022-11-27T21:27:24.764Z,13.55
2022-11-27T21:29:51.426Z,13.85
2022-11-27T21:32:18.241Z,14.68
2022-11-27T21:34:44.949Z,13.68
2022-11-27T21:37:11.473Z,13.90
2022-11-27T21:39:38.533Z,15.10
2022-11-27T21:42:05.069Z,14.13
2022-11-27T21:44:31.574Z,16.00
2022-11-27T21:46:59.897Z,16.25
2022-11-27T21:49:26.480Z,14.35
2022-11-27T21:51:54.540Z,15.13
2022-11-27T21:54:22.181Z,15.00
2022-11-27T21:56:51.666Z,15.10
2022-11-27T21:59:18.516Z,12.98
2022-11-27T22:01:45.747Z,14.93
2022-11-27T22:04:12.815Z,17.27
2022-11-27T22:06:41.317Z,15.20
2022-11-27T22:09:14.712Z,14.68
2022-11-27T22:11:42.113Z,14.40
2022-11-27T22:14:08.949Z,13.45
2022-11-27T22:16:42.927Z,14.95
2022-11-27T22:19:11.732Z,13.32
2022-11-27T22:21:38.307Z,16.05
2022-11-27T22:24:05.023Z,14.65
2022-11-27T22:26:31.683Z,13.10
2022-11-27T22:28:58.675Z,13.88
2022-11-27T22:31:30.278Z,14.55
2022-11-27T22:33:57.601Z,16.08
2022-11-27T22:36:35.103Z,16.83
2022-11-27T22:39:05.021Z,14.48
2022-11-27T22:41:35.316Z,14.60
2022-11-27T22:44:11.570Z,15.55
2022-11-27T22:46:42.437Z,16.63
2022-11-27T22:49:11.471Z,13.98
2022-11-27T22:51:38.557Z,14.35
2022-11-27T22:54:07.160Z,14.23
2022-11-27T22:56:34.284Z,14.80
2022-11-27T22:59:30.341Z,15.80
2022-11-27T23:01:48.732Z,14.75
2022-11-27T23:04:15.600Z,15.75
2022-11-27T23:06:42.212Z,14.73
2022-11-27T23:09:09.564Z,17.10
2022-11-27T23:11:36.103Z,17.30
2022-11-27T23:14:03.424Z,16.70
2022-11-27T23:16:30.259Z,15.63
2022-11-27T23:18:57.376Z,14.15
2022-11-27T23:21:24.693Z,14.50
2022-11-27T23:23:51.626Z,15.63
2022-11-27T23:26:20.805Z,18.40
2022-11-27T23:28:49.753Z,17.60
2022-11-27T23:31:36.480Z,13.13
2022-11-27T23:34:07.199Z,16.30
2022-11-27T23:39:01.445Z,16.02
2022-11-27T23:41:27.975Z,15.75
2022-11-27T23:43:55.369Z,14.50
2022-11-27T23:46:26.210Z,16.17
2022-11-27T23:48:57.757Z,14.10
2022-11-27T23:51:27.276Z,16.90
2022-11-27T23:53:54.309Z,16.17
2022-11-27T23:56:26.059Z,14.45
2022-11-27T23:58:54.112Z,16.20
